Wednesday, April 16, 2014, 6:15 PM EDT

KW99, Petersburg, Grant County Airport

Location: Petersburg, WV, United States Lat: 38.983
Local Time: 6:15 PM EDT (22:15 GMT) Lon: -79.133
Time Zone: US/Eastern Elev: 961 ft

Show me the last for .
Show Decoded

2014-04-16 17:55 METAR KW99 162155Z AUTO 09005KT 10SM CLR 11/M06 A3039 RMK AO2 T01091065 =
2014-04-16 17:30 METAR KW99 162130Z AUTO 15004KT 10SM CLR 11/M06 A3040 RMK AO2 T01121059 =
2014-04-16 17:15 METAR KW99 162115Z AUTO 00000KT 10SM CLR 11/M07 A3040 RMK AO2 T01101067 =
2014-04-16 16:55 METAR KW99 162055Z AUTO 24005KT 10SM CLR 11/M05 A3040 RMK AO2 T01131046 =
2014-04-16 16:35 METAR KW99 162035Z AUTO 00000KT 10SM CLR 11/M06 A3040 RMK AO2 T01141056 =
2014-04-16 16:15 METAR KW99 162015Z AUTO 00000KT 10SM CLR 11/M04 A3040 RMK AO2 T01071040 =
2014-04-16 15:55 METAR KW99 161955Z AUTO 28007KT 10SM CLR 10/M04 A3040 RMK AO2 T01041036 =
2014-04-16 15:35 METAR KW99 161935Z AUTO 00000KT 10SM CLR 10/M04 A3040 RMK AO2 T01001041 =
2014-04-16 15:15 METAR KW99 161915Z AUTO 20004KT 10SM CLR 10/M04 A3041 RMK AO2 T00981039 =
2014-04-16 14:55 METAR KW99 161855Z AUTO 15005KT 10SM CLR 09/M04 A3042 RMK AO2 T00941040 =
2014-04-16 14:35 METAR KW99 161835Z AUTO 08006KT 10SM CLR 10/M03 A3043 RMK AO2 T00961026 =
2014-04-16 14:10 METAR KW99 161810Z AUTO 00000KT 10SM CLR 08/M05 A3043 RMK AO2 T00811047 =
2014-04-16 13:55 METAR KW99 161755Z AUTO 05003KT 10SM CLR 07/M05 A3044 RMK AO2 T00741054 10078
                 20016 =
2014-04-16 13:35 METAR KW99 161735Z AUTO 13005KT 10SM CLR 08/M05 A3044 RMK AO2 T00761051 =
2014-04-16 13:15 METAR KW99 161715Z AUTO 11008KT 10SM CLR 07/M05 A3044 RMK AO2 T00711049 =
2014-04-16 12:55 METAR KW99 161655Z AUTO 08005KT 10SM CLR 07/M06 A3045 RMK AO2 T00701063 =
2014-04-16 12:35 METAR KW99 161635Z AUTO 31004KT 10SM CLR 07/M06 A3045 RMK AO2 T00701058 =
2014-04-16 12:15 METAR KW99 161615Z AUTO 26003KT 10SM CLR 07/M06 A3046 RMK AO2 T00681062 =
2014-04-16 11:55 METAR KW99 161555Z AUTO 00000KT 10SM CLR 05/M06 A3046 RMK AO2 T00541062 =
2014-04-16 11:35 METAR KW99 161535Z AUTO 07003KT 10SM CLR 06/M06 A3046 RMK AO2 T00571058 =
2014-04-16 11:10 METAR KW99 161510Z AUTO 04003KT 10SM CLR 05/M05 A3045 RMK AO2 T00531052 =
2014-04-16 10:55 METAR KW99 161455Z AUTO 36004KT 10SM CLR 05/M05 A3045 RMK AO2 T00531049 =
2014-04-16 10:35 METAR KW99 161435Z AUTO 04006KT 10SM CLR 05/M04 A3045 RMK AO2 T00461045 =
2014-04-16 10:15 METAR KW99 161415Z AUTO 36004KT 10SM SCT037 04/M04 A3045 RMK AO2 T00411042 =
2014-04-16 09:55 METAR KW99 161355Z AUTO 01005KT 10SM SCT037 03/M04 A3044 RMK AO2 T00321045 =
2014-04-16 09:30 METAR KW99 161330Z AUTO 02007KT 10SM CLR 03/M04 A3043 RMK AO2 T00291044 =
2014-04-16 09:15 METAR KW99 161315Z AUTO 02004KT 10SM CLR 03/M04 A3043 RMK AO2 T00261042 =
2014-04-16 08:55 METAR KW99 161255Z AUTO 01007G14KT 10SM SCT040 02/M05 A3042 RMK AO2 T00231048 =
2014-04-16 08:30 METAR KW99 161230Z AUTO 35005KT 10SM SCT042 02/M05 A3041 RMK AO2 T00231053 =
2014-04-16 07:55 METAR KW99 161155Z AUTO 31005KT 10SM SCT043 02/M05 A3039 RMK AO2 70004 T00161053
                 10023 20005 =
2014-04-16 07:35 METAR KW99 161135Z AUTO 33003KT 10SM CLR 01/M05 A3038 RMK AO2 T00121052 =
2014-04-16 07:15 METAR KW99 161115Z AUTO 32004KT 10SM CLR 01/M05 A3036 RMK AO2 T00051055 =
2014-04-16 06:55 METAR KW99 161055Z AUTO 32004KT 10SM CLR 01/M06 A3034 RMK AO2 T00061057 =
2014-04-16 06:35 METAR KW99 161035Z AUTO 31004KT 10SM SCT040 01/M06 A3034 RMK AO2 T00091058 =
2014-04-16 06:15 METAR KW99 161015Z AUTO 32007KT 10SM SCT040 01/M06 A3032 RMK AO2 T00101060 =
2014-04-16 05:55 METAR KW99 160955Z AUTO 31005KT 10SM SCT032 SCT040 01/M06 A3031 RMK AO2
                 T00101056 =
2014-04-16 05:35 METAR KW99 160935Z AUTO 32007KT 10SM BKN040 01/M06 A3029 RMK AO2 T00121060 =
2014-04-16 05:15 METAR KW99 160915Z AUTO 32008G16KT 10SM CLR 02/M06 A3028 RMK AO2 T00151065 =
2014-04-16 04:55 METAR KW99 160855Z AUTO 35011G16KT 10SM SCT042 02/M06 A3027 RMK AO2 T00151065 =
2014-04-16 04:35 METAR KW99 160835Z AUTO 33008KT 10SM SCT045 02/M07 A3026 RMK AO2 T00161067 =
2014-04-16 04:15 METAR KW99 160815Z AUTO 33009KT 10SM BKN045 02/M06 A3026 RMK AO2 T00161065 =
2014-04-16 03:55 METAR KW99 160755Z AUTO 33006KT 10SM OVC045 02/M06 A3024 RMK AO2 T00171065 =
2014-04-16 03:35 METAR KW99 160735Z AUTO 32005KT 10SM OVC047 02/M06 A3023 RMK AO2 T00181056 =
2014-04-16 03:15 METAR KW99 160715Z AUTO 31008G16KT 10SM OVC047 02/M06 A3022 RMK AO2 T00181061 =
2014-04-16 02:55 METAR KW99 160655Z AUTO 32010G15KT 10SM BKN047 02/M06 A3021 RMK AO2 T00161061 =
2014-04-16 02:35 METAR KW99 160635Z AUTO 31009G16KT 10SM BKN047 02/M06 A3020 RMK AO2 T00201060 =
2014-04-16 02:15 METAR KW99 160615Z AUTO 32008G15KT 10SM OVC047 02/M06 A3020 RMK AO2 T00231058 =
2014-04-16 01:55 METAR KW99 160555Z AUTO 31011G17KT 10SM OVC047 02/M06 A3019 RMK AO2 T00221061
                 10046 20021 401920021 =
2014-04-16 01:35 METAR KW99 160535Z AUTO 33011G17KT 10SM BKN049 02/M07 A3018 RMK AO2 T00231069 =
2014-04-16 01:15 METAR KW99 160515Z AUTO 33012G17KT 10SM OVC049 02/M07 A3017 RMK AO2 T00231069 =
2014-04-16 00:55 METAR KW99 160455Z AUTO 33010G24KT 10SM OVC047 02/M07 A3017 RMK AO2 T00231070 =
2014-04-16 00:35 METAR KW99 160435Z AUTO 35011G18KT 310V010 10SM OVC047 03/M06 A3016 RMK AO2
                 T00251057 =
2014-04-16 00:15 METAR KW99 160415Z AUTO 34011G17KT 10SM OVC047 03/M06 A3015 RMK AO2 T00251061 =
2014-04-15 23:55 METAR KW99 160355Z AUTO 34008G14KT 10SM OVC045 03/M06 A3013 RMK AO2 T00261060 =
2014-04-15 23:35 METAR KW99 160335Z AUTO 33008G20KT 10SM OVC045 03/M05 A3014 RMK AO2 T00271053 =
2014-04-15 23:15 METAR KW99 160315Z AUTO 32012G19KT 10SM OVC045 03/M05 A3012 RMK AO2 T00301048 =
2014-04-15 22:55 METAR KW99 160255Z AUTO 31014G20KT 10SM BKN045 03/M04 A3012 RMK AO2 T00301045 =
2014-04-15 22:35 METAR KW99 160235Z AUTO 31017G29KT 10SM SCT040 BKN047 03/M04 A3011 RMK AO2
                 T00341043 =
2014-04-15 22:15 METAR KW99 160215Z AUTO 32012G20KT 10SM SCT041 OVC048 04/M03 A3009 RMK AO2
                 T00401031 =
2014-04-15 21:55 METAR KW99 160155Z AUTO 32015G24KT 10SM OVC043 04/M03 A3008 RMK AO2 T00401033 =
2014-04-15 21:35 METAR KW99 160135Z AUTO 32015G22KT 10SM BKN046 OVC050 04/M04 A3007 RMK AO2
                 T00381036 =
2014-04-15 21:15 METAR KW99 160115Z AUTO 32015G21KT 10SM SCT043 OVC049 04/M02 A3006 RMK AO2
                 T00391024 =
2014-04-15 20:55 METAR KW99 160055Z AUTO 30013G20KT 280V350 10SM BKN042 BKN047 04/M03 A3003 RMK
                 AO2 T00431030 =
2014-04-15 20:35 METAR KW99 160035Z AUTO 31015G26KT 10SM OVC040 04/M02 A3000 RMK AO2 T00441019 =
2014-04-15 20:15 METAR KW99 160015Z AUTO 31014G22KT 10SM OVC041 05/M02 A2999 RMK AO2 T00451020 =
2014-04-15 19:55 METAR KW99 152355Z AUTO 31018G29KT 10SM SCT028 BKN041 OVC048 05/M02 A2997 RMK
                 AO2 T00451018 10107 20037 =
2014-04-15 19:35 METAR KW99 152335Z AUTO 33013G22KT 7SM -RA SCT030 BKN055 OVC120 04/00 A2995 RMK
                 AO2 T00370004 =
2014-04-15 19:15 METAR KW99 152315Z AUTO 31017G22KT 10SM SCT039 SCT048 OVC120 06/00 A2993 RMK AO2
                 T00601004 =
2014-04-15 18:55 METAR KW99 152255Z AUTO 32007KT 10SM OVC039 06/00 A2993 RMK AO2 T00591002 =
2014-04-15 18:35 METAR KW99 152235Z AUTO 33008G19KT 10SM BKN038 BKN044 OVC050 06/01 A2993 RMK AO2
                 T00630006 =

Support USWX by starting your Amazon purchase here.